sensor_id;sensor_type;location;lat;lon;timestamp;P1;P2;P0
65803;PMS5003;65658;63.740;34.316;2023-05-07T00:03:26;3;3;
65803;PMS5003;65658;63.740;34.316;2023-05-07T00:07:13;2;3;
65803;PMS5003;65658;63.740;34.316;2023-05-07T00:18:52;3;3;
65803;PMS5003;65658;63.740;34.316;2023-05-07T00:22:43;28;28;
65803;PMS5003;65658;63.740;34.316;2023-05-07T00:26:34;40;43;
65803;PMS5003;65658;63.740;34.316;2023-05-07T00:30:35;14;14;
65803;PMS5003;65658;63.740;34.316;2023-05-07T00:34:36;37;40;
65803;PMS5003;65658;63.740;34.316;2023-05-07T00:38:26;46;54;
65803;PMS5003;65658;63.740;34.316;2023-05-07T00:42:15;51;60;
65803;PMS5003;65658;63.740;34.316;2023-05-07T00:46:06;35;35;
65803;PMS5003;65658;63.740;34.316;2023-05-07T00:49:57;16;18;
65803;PMS5003;65658;63.740;34.316;2023-05-07T00:57:55;19;20;
65803;PMS5003;65658;63.740;34.316;2023-05-07T01:01:45;54;65;
65803;PMS5003;65658;63.740;34.316;2023-05-07T01:09:33;53;64;
65803;PMS5003;65658;63.740;34.316;2023-05-07T01:13:34;9;9;
65803;PMS5003;65658;63.740;34.316;2023-05-07T01:21:46;52;62;
65803;PMS5003;65658;63.740;34.316;2023-05-07T01:29:43;11;11;
65803;PMS5003;65658;63.740;34.316;2023-05-07T01:37:38;38;40;
65803;PMS5003;65658;63.740;34.316;2023-05-07T01:41:24;3;3;
65803;PMS5003;65658;63.740;34.316;2023-05-07T01:45:11;2;2;
65803;PMS5003;65658;63.740;34.316;2023-05-07T01:48:57;2;2;
65803;PMS5003;65658;63.740;34.316;2023-05-07T01:52:44;3;3;
65803;PMS5003;65658;63.740;34.316;2023-05-07T01:56:30;2;2;
65803;PMS5003;65658;63.740;34.316;2023-05-07T02:11:50;2;3;
65803;PMS5003;65658;63.740;34.316;2023-05-07T02:15:37;3;3;
65803;PMS5003;65658;63.740;34.316;2023-05-07T02:19:23;2;2;
65803;PMS5003;65658;63.740;34.316;2023-05-07T02:27:00;7;7;
65803;PMS5003;65658;63.740;34.316;2023-05-07T02:30:48;28;28;
65803;PMS5003;65658;63.740;34.316;2023-05-07T02:34:36;41;47;
65803;PMS5003;65658;63.740;34.316;2023-05-07T02:38:23;57;70;
65803;PMS5003;65658;63.740;34.316;2023-05-07T02:42:23;12;12;
65803;PMS5003;65658;63.740;34.316;2023-05-07T02:46:09;42;49;
65803;PMS5003;65658;63.740;34.316;2023-05-07T02:49:56;16;19;
65803;PMS5003;65658;63.740;34.316;2023-05-07T02:53:43;29;29;
65803;PMS5003;65658;63.740;34.316;2023-05-07T02:57:30;19;19;
65803;PMS5003;65658;63.740;34.316;2023-05-07T03:01:19;24;24;
65803;PMS5003;65658;63.740;34.316;2023-05-07T03:05:05;19;20;
65803;PMS5003;65658;63.740;34.316;2023-05-07T03:09:04;20;21;
65803;PMS5003;65658;63.740;34.316;2023-05-07T03:16:43;19;21;
65803;PMS5003;65658;63.740;34.316;2023-05-07T03:20:29;14;17;
65803;PMS5003;65658;63.740;34.316;2023-05-07T03:24:16;11;11;
65803;PMS5003;65658;63.740;34.316;2023-05-07T03:28:02;9;10;
65803;PMS5003;65658;63.740;34.316;2023-05-07T03:31:49;7;9;
65803;PMS5003;65658;63.740;34.316;2023-05-07T03:35:36;10;11;
65803;PMS5003;65658;63.740;34.316;2023-05-07T03:39:22;6;7;
65803;PMS5003;65658;63.740;34.316;2023-05-07T03:43:09;10;11;
65803;PMS5003;65658;63.740;34.316;2023-05-07T03:47:07;10;10;
65803;PMS5003;65658;63.740;34.316;2023-05-07T03:54:44;10;10;
65803;PMS5003;65658;63.740;34.316;2023-05-07T03:58:30;7;7;
65803;PMS5003;65658;63.740;34.316;2023-05-07T04:02:27;12;12;
65803;PMS5003;65658;63.740;34.316;2023-05-07T04:06:24;11;11;
65803;PMS5003;65658;63.740;34.316;2023-05-07T04:10:10;8;8;
65803;PMS5003;65658;63.740;34.316;2023-05-07T04:13:57;13;14;
65803;PMS5003;65658;63.740;34.316;2023-05-07T04:25:25;7;7;
65803;PMS5003;65658;63.740;34.316;2023-05-07T04:36:53;3;3;
65803;PMS5003;65658;63.740;34.316;2023-05-07T04:40:40;3;3;
65803;PMS5003;65658;63.740;34.316;2023-05-07T04:44:26;6;6;
65803;PMS5003;65658;63.740;34.316;2023-05-07T04:48:12;6;6;
65803;PMS5003;65658;63.740;34.316;2023-05-07T04:51:59;8;8;
65803;PMS5003;65658;63.740;34.316;2023-05-07T04:55:45;6;7;
65803;PMS5003;65658;63.740;34.316;2023-05-07T04:59:32;3;3;
65803;PMS5003;65658;63.740;34.316;2023-05-07T05:03:18;4;4;
65803;PMS5003;65658;63.740;34.316;2023-05-07T05:07:04;5;5;
65803;PMS5003;65658;63.740;34.316;2023-05-07T05:11:02;9;10;
65803;PMS5003;65658;63.740;34.316;2023-05-07T05:15:00;1;1;
65803;PMS5003;65658;63.740;34.316;2023-05-07T05:18:46;2;2;
65803;PMS5003;65658;63.740;34.316;2023-05-07T05:26:23;2;2;
65803;PMS5003;65658;63.740;34.316;2023-05-07T05:30:08;2;2;
65803;PMS5003;65658;63.740;34.316;2023-05-07T05:37:45;2;2;
65803;PMS5003;65658;63.740;34.316;2023-05-07T05:41:42;0;1;
65803;PMS5003;65658;63.740;34.316;2023-05-07T05:45:29;1;1;
65803;PMS5003;65658;63.740;34.316;2023-05-07T05:49:25;0;0;
65803;PMS5003;65658;63.740;34.316;2023-05-07T05:53:23;1;1;
65803;PMS5003;65658;63.740;34.316;2023-05-07T05:57:20;1;1;
65803;PMS5003;65658;63.740;34.316;2023-05-07T06:08:46;2;2;
65803;PMS5003;65658;63.740;34.316;2023-05-07T06:12:33;2;2;
65803;PMS5003;65658;63.740;34.316;2023-05-07T06:16:18;1;1;
65803;PMS5003;65658;63.740;34.316;2023-05-07T06:20:05;2;2;
65803;PMS5003;65658;63.740;34.316;2023-05-07T06:23:50;0;1;
65803;PMS5003;65658;63.740;34.316;2023-05-07T06:27:37;1;1;
65803;PMS5003;65658;63.740;34.316;2023-05-07T06:31:28;1;1;
65803;PMS5003;65658;63.740;34.316;2023-05-07T06:35:13;1;1;
65803;PMS5003;65658;63.740;34.316;2023-05-07T06:38:59;1;1;
65803;PMS5003;65658;63.740;34.316;2023-05-07T06:42:46;2;2;
65803;PMS5003;65658;63.740;34.316;2023-05-07T06:50:23;1;1;
65803;PMS5003;65658;63.740;34.316;2023-05-07T06:58:00;0;0;
65803;PMS5003;65658;63.740;34.316;2023-05-07T07:09:27;1;1;
65803;PMS5003;65658;63.740;34.316;2023-05-07T07:13:24;1;1;
65803;PMS5003;65658;63.740;34.316;2023-05-07T07:17:13;0;0;
65803;PMS5003;65658;63.740;34.316;2023-05-07T07:20:59;0;2;
65803;PMS5003;65658;63.740;34.316;2023-05-07T07:24:45;2;2;
65803;PMS5003;65658;63.740;34.316;2023-05-07T07:28:31;1;1;
65803;PMS5003;65658;63.740;34.316;2023-05-07T07:32:18;2;2;
65803;PMS5003;65658;63.740;34.316;2023-05-07T07:36:05;0;0;
65803;PMS5003;65658;63.740;34.316;2023-05-07T07:39:51;2;3;
65803;PMS5003;65658;63.740;34.316;2023-05-07T07:43:37;1;1;
65803;PMS5003;65658;63.740;34.316;2023-05-07T07:51:23;0;0;
65803;PMS5003;65658;63.740;34.316;2023-05-07T07:59:01;2;2;
65803;PMS5003;65658;63.740;34.316;2023-05-07T08:02:47;1;1;
65803;PMS5003;65658;63.740;34.316;2023-05-07T08:06:34;1;1;
65803;PMS5003;65658;63.740;34.316;2023-05-07T08:14:12;1;2;
65803;PMS5003;65658;63.740;34.316;2023-05-07T08:17:58;2;2;
65803;PMS5003;65658;63.740;34.316;2023-05-07T08:21:44;1;4;
65803;PMS5003;65658;63.740;34.316;2023-05-07T08:29:22;1;1;
65803;PMS5003;65658;63.740;34.316;2023-05-07T08:33:09;4;4;
65803;PMS5003;65658;63.740;34.316;2023-05-07T08:36:55;0;0;
65803;PMS5003;65658;63.740;34.316;2023-05-07T08:40:42;5;5;
65803;PMS5003;65658;63.740;34.316;2023-05-07T08:44:28;0;0;
65803;PMS5003;65658;63.740;34.316;2023-05-07T08:48:18;0;0;
65803;PMS5003;65658;63.740;34.316;2023-05-07T08:52:14;1;1;
65803;PMS5003;65658;63.740;34.316;2023-05-07T08:56:01;1;1;
65803;PMS5003;65658;63.740;34.316;2023-05-07T08:59:48;3;3;
65803;PMS5003;65658;63.740;34.316;2023-05-07T09:07:26;1;1;
65803;PMS5003;65658;63.740;34.316;2023-05-07T09:11:12;1;1;
65803;PMS5003;65658;63.740;34.316;2023-05-07T09:14:58;1;1;
65803;PMS5003;65658;63.740;34.316;2023-05-07T09:22:38;1;1;
65803;PMS5003;65658;63.740;34.316;2023-05-07T09:26:25;1;1;
65803;PMS5003;65658;63.740;34.316;2023-05-07T09:30:11;1;1;
65803;PMS5003;65658;63.740;34.316;2023-05-07T09:33:57;1;1;
65803;PMS5003;65658;63.740;34.316;2023-05-07T09:45:25;1;2;
65803;PMS5003;65658;63.740;34.316;2023-05-07T09:49:12;0;0;
65803;PMS5003;65658;63.740;34.316;2023-05-07T09:53:01;0;0;
65803;PMS5003;65658;63.740;34.316;2023-05-07T09:56:49;3;3;
65803;PMS5003;65658;63.740;34.316;2023-05-07T10:00:36;0;0;
65803;PMS5003;65658;63.740;34.316;2023-05-07T10:04:24;1;1;
65803;PMS5003;65658;63.740;34.316;2023-05-07T10:08:10;0;1;
65803;PMS5003;65658;63.740;34.316;2023-05-07T10:11:57;2;2;
65803;PMS5003;65658;63.740;34.316;2023-05-07T10:15:44;4;4;
65803;PMS5003;65658;63.740;34.316;2023-05-07T10:19:31;1;1;
65803;PMS5003;65658;63.740;34.316;2023-05-07T10:23:19;1;1;
65803;PMS5003;65658;63.740;34.316;2023-05-07T10:27:09;2;2;
65803;PMS5003;65658;63.740;34.316;2023-05-07T10:30:58;2;2;
65803;PMS5003;65658;63.740;34.316;2023-05-07T10:34:47;1;1;
65803;PMS5003;65658;63.740;34.316;2023-05-07T10:42:25;0;0;
65803;PMS5003;65658;63.740;34.316;2023-05-07T10:46:15;1;1;
65803;PMS5003;65658;63.740;34.316;2023-05-07T10:57:51;0;0;
65803;PMS5003;65658;63.740;34.316;2023-05-07T11:01:53;1;1;
65803;PMS5003;65658;63.740;34.316;2023-05-07T11:05:39;0;0;
65803;PMS5003;65658;63.740;34.316;2023-05-07T11:09:35;0;0;
65803;PMS5003;65658;63.740;34.316;2023-05-07T11:13:49;2;2;
65803;PMS5003;65658;63.740;34.316;2023-05-07T11:25:19;1;1;
65803;PMS5003;65658;63.740;34.316;2023-05-07T11:29:09;0;0;
65803;PMS5003;65658;63.740;34.316;2023-05-07T11:36:46;1;1;
65803;PMS5003;65658;63.740;34.316;2023-05-07T11:40:33;0;0;
65803;PMS5003;65658;63.740;34.316;2023-05-07T11:44:20;1;1;
65803;PMS5003;65658;63.740;34.316;2023-05-07T11:48:06;2;2;
65803;PMS5003;65658;63.740;34.316;2023-05-07T11:51:53;1;1;
65803;PMS5003;65658;63.740;34.316;2023-05-07T11:55:39;1;1;
65803;PMS5003;65658;63.740;34.316;2023-05-07T11:59:24;0;0;
65803;PMS5003;65658;63.740;34.316;2023-05-07T12:03:11;1;1;
65803;PMS5003;65658;63.740;34.316;2023-05-07T12:06:57;1;1;
65803;PMS5003;65658;63.740;34.316;2023-05-07T12:10:44;0;0;
65803;PMS5003;65658;63.740;34.316;2023-05-07T12:14:30;0;0;
65803;PMS5003;65658;63.740;34.316;2023-05-07T12:22:08;1;1;
65803;PMS5003;65658;63.740;34.316;2023-05-07T12:29:46;0;0;
65803;PMS5003;65658;63.740;34.316;2023-05-07T12:33:43;0;0;
65803;PMS5003;65658;63.740;34.316;2023-05-07T12:37:40;1;1;
65803;PMS5003;65658;63.740;34.316;2023-05-07T12:41:26;0;0;
65803;PMS5003;65658;63.740;34.316;2023-05-07T12:52:54;1;1;
65803;PMS5003;65658;63.740;34.316;2023-05-07T12:56:41;1;2;
65803;PMS5003;65658;63.740;34.316;2023-05-07T13:04:17;1;1;
65803;PMS5003;65658;63.740;34.316;2023-05-07T13:08:03;2;2;
65803;PMS5003;65658;63.740;34.316;2023-05-07T13:11:49;0;0;
65803;PMS5003;65658;63.740;34.316;2023-05-07T13:15:36;0;0;
65803;PMS5003;65658;63.740;34.316;2023-05-07T13:19:32;0;0;
65803;PMS5003;65658;63.740;34.316;2023-05-07T13:23:20;0;0;
65803;PMS5003;65658;63.740;34.316;2023-05-07T13:27:17;1;1;
65803;PMS5003;65658;63.740;34.316;2023-05-07T13:31:03;1;1;
65803;PMS5003;65658;63.740;34.316;2023-05-07T13:34:50;0;0;
65803;PMS5003;65658;63.740;34.316;2023-05-07T13:46:17;3;5;
65803;PMS5003;65658;63.740;34.316;2023-05-07T13:50:04;3;3;
65803;PMS5003;65658;63.740;34.316;2023-05-07T13:53:50;5;6;
65803;PMS5003;65658;63.740;34.316;2023-05-07T13:57:37;4;4;
65803;PMS5003;65658;63.740;34.316;2023-05-07T14:01:23;3;3;
65803;PMS5003;65658;63.740;34.316;2023-05-07T14:05:10;2;2;
65803;PMS5003;65658;63.740;34.316;2023-05-07T14:08:56;2;2;
65803;PMS5003;65658;63.740;34.316;2023-05-07T14:12:43;1;1;
65803;PMS5003;65658;63.740;34.316;2023-05-07T14:24:21;1;1;
65803;PMS5003;65658;63.740;34.316;2023-05-07T14:31:59;2;2;
65803;PMS5003;65658;63.740;34.316;2023-05-07T14:35:45;0;0;
65803;PMS5003;65658;63.740;34.316;2023-05-07T14:47:13;2;2;
65803;PMS5003;65658;63.740;34.316;2023-05-07T14:51:00;2;2;
65803;PMS5003;65658;63.740;34.316;2023-05-07T14:54:46;2;2;
65803;PMS5003;65658;63.740;34.316;2023-05-07T14:58:33;0;0;
65803;PMS5003;65658;63.740;34.316;2023-05-07T15:02:19;1;1;
65803;PMS5003;65658;63.740;34.316;2023-05-07T15:06:05;3;3;
65803;PMS5003;65658;63.740;34.316;2023-05-07T15:09:52;0;0;
65803;PMS5003;65658;63.740;34.316;2023-05-07T15:17:29;1;1;
65803;PMS5003;65658;63.740;34.316;2023-05-07T15:25:07;3;3;
65803;PMS5003;65658;63.740;34.316;2023-05-07T15:28:53;1;1;
65803;PMS5003;65658;63.740;34.316;2023-05-07T15:36:30;2;2;
65803;PMS5003;65658;63.740;34.316;2023-05-07T15:40:17;1;1;
65803;PMS5003;65658;63.740;34.316;2023-05-07T15:44:04;2;4;
65803;PMS5003;65658;63.740;34.316;2023-05-07T15:47:50;4;4;
65803;PMS5003;65658;63.740;34.316;2023-05-07T15:55:29;3;3;
65803;PMS5003;65658;63.740;34.316;2023-05-07T16:03:17;2;2;
65803;PMS5003;65658;63.740;34.316;2023-05-07T16:10:54;3;4;
65803;PMS5003;65658;63.740;34.316;2023-05-07T16:14:40;1;1;
65803;PMS5003;65658;63.740;34.316;2023-05-07T16:18:38;2;2;
65803;PMS5003;65658;63.740;34.316;2023-05-07T16:22:35;2;2;
65803;PMS5003;65658;63.740;34.316;2023-05-07T16:26:22;2;2;
65803;PMS5003;65658;63.740;34.316;2023-05-07T16:30:08;2;2;
65803;PMS5003;65658;63.740;34.316;2023-05-07T16:33:55;4;4;
65803;PMS5003;65658;63.740;34.316;2023-05-07T16:37:41;5;5;
65803;PMS5003;65658;63.740;34.316;2023-05-07T16:49:21;4;4;
65803;PMS5003;65658;63.740;34.316;2023-05-07T16:53:07;5;5;
65803;PMS5003;65658;63.740;34.316;2023-05-07T16:56:53;8;9;
65803;PMS5003;65658;63.740;34.316;2023-05-07T17:00:40;7;7;
65803;PMS5003;65658;63.740;34.316;2023-05-07T17:04:37;4;4;
65803;PMS5003;65658;63.740;34.316;2023-05-07T17:08:23;2;2;
65803;PMS5003;65658;63.740;34.316;2023-05-07T17:12:10;3;3;
65803;PMS5003;65658;63.740;34.316;2023-05-07T17:19:58;7;7;
65803;PMS5003;65658;63.740;34.316;2023-05-07T17:23:45;8;11;
65803;PMS5003;65658;63.740;34.316;2023-05-07T17:27:34;11;12;
65803;PMS5003;65658;63.740;34.316;2023-05-07T17:31:32;10;11;
65803;PMS5003;65658;63.740;34.316;2023-05-07T17:35:19;14;14;
65803;PMS5003;65658;63.740;34.316;2023-05-07T17:39:05;12;13;
65803;PMS5003;65658;63.740;34.316;2023-05-07T17:46:43;5;5;
65803;PMS5003;65658;63.740;34.316;2023-05-07T17:50:29;6;6;
65803;PMS5003;65658;63.740;34.316;2023-05-07T17:54:27;4;4;
65803;PMS5003;65658;63.740;34.316;2023-05-07T17:58:13;7;9;
65803;PMS5003;65658;63.740;34.316;2023-05-07T18:02:00;6;7;
65803;PMS5003;65658;63.740;34.316;2023-05-07T18:05:46;5;5;
65803;PMS5003;65658;63.740;34.316;2023-05-07T18:09:33;5;5;
65803;PMS5003;65658;63.740;34.316;2023-05-07T18:13:19;3;3;
65803;PMS5003;65658;63.740;34.316;2023-05-07T18:20:57;6;7;
65803;PMS5003;65658;63.740;34.316;2023-05-07T18:28:45;3;3;
65803;PMS5003;65658;63.740;34.316;2023-05-07T18:32:32;6;7;
65803;PMS5003;65658;63.740;34.316;2023-05-07T18:40:09;4;4;
65803;PMS5003;65658;63.740;34.316;2023-05-07T18:48:19;5;5;
65803;PMS5003;65658;63.740;34.316;2023-05-07T18:52:16;4;4;
65803;PMS5003;65658;63.740;34.316;2023-05-07T18:56:02;4;4;
65803;PMS5003;65658;63.740;34.316;2023-05-07T19:03:39;3;3;
65803;PMS5003;65658;63.740;34.316;2023-05-07T19:11:17;6;6;
65803;PMS5003;65658;63.740;34.316;2023-05-07T19:15:14;5;6;
65803;PMS5003;65658;63.740;34.316;2023-05-07T19:22:51;5;5;
65803;PMS5003;65658;63.740;34.316;2023-05-07T19:30:28;5;6;
65803;PMS5003;65658;63.740;34.316;2023-05-07T19:34:14;5;6;
65803;PMS5003;65658;63.740;34.316;2023-05-07T19:42:02;5;6;
65803;PMS5003;65658;63.740;34.316;2023-05-07T19:45:50;6;7;
65803;PMS5003;65658;63.740;34.316;2023-05-07T19:49:37;6;6;
65803;PMS5003;65658;63.740;34.316;2023-05-07T19:53:25;4;4;
65803;PMS5003;65658;63.740;34.316;2023-05-07T19:57:11;6;6;
65803;PMS5003;65658;63.740;34.316;2023-05-07T20:00:58;7;7;
65803;PMS5003;65658;63.740;34.316;2023-05-07T20:08:47;5;5;
65803;PMS5003;65658;63.740;34.316;2023-05-07T20:12:33;4;4;
65803;PMS5003;65658;63.740;34.316;2023-05-07T20:16:20;6;7;
65803;PMS5003;65658;63.740;34.316;2023-05-07T20:20:06;6;6;
65803;PMS5003;65658;63.740;34.316;2023-05-07T20:27:55;5;5;
65803;PMS5003;65658;63.740;34.316;2023-05-07T20:31:41;4;4;
65803;PMS5003;65658;63.740;34.316;2023-05-07T20:43:10;3;3;
65803;PMS5003;65658;63.740;34.316;2023-05-07T20:46:56;5;5;
65803;PMS5003;65658;63.740;34.316;2023-05-07T20:50:41;10;10;
65803;PMS5003;65658;63.740;34.316;2023-05-07T20:58:19;7;8;
65803;PMS5003;65658;63.740;34.316;2023-05-07T21:02:06;5;5;
65803;PMS5003;65658;63.740;34.316;2023-05-07T21:05:53;7;7;
65803;PMS5003;65658;63.740;34.316;2023-05-07T21:09:39;4;5;
65803;PMS5003;65658;63.740;34.316;2023-05-07T21:13:25;5;6;
65803;PMS5003;65658;63.740;34.316;2023-05-07T21:17:23;5;5;
65803;PMS5003;65658;63.740;34.316;2023-05-07T21:21:20;5;5;
65803;PMS5003;65658;63.740;34.316;2023-05-07T21:25:07;5;6;
65803;PMS5003;65658;63.740;34.316;2023-05-07T21:28:53;4;5;
65803;PMS5003;65658;63.740;34.316;2023-05-07T21:32:41;6;6;
65803;PMS5003;65658;63.740;34.316;2023-05-07T21:36:27;5;5;
65803;PMS5003;65658;63.740;34.316;2023-05-07T21:40:15;5;6;
65803;PMS5003;65658;63.740;34.316;2023-05-07T21:44:02;7;7;
65803;PMS5003;65658;63.740;34.316;2023-05-07T21:51:39;3;4;
65803;PMS5003;65658;63.740;34.316;2023-05-07T21:55:25;6;6;
65803;PMS5003;65658;63.740;34.316;2023-05-07T21:59:12;4;4;
65803;PMS5003;65658;63.740;34.316;2023-05-07T22:02:58;4;4;
65803;PMS5003;65658;63.740;34.316;2023-05-07T22:10:35;4;4;
65803;PMS5003;65658;63.740;34.316;2023-05-07T22:14:22;4;4;
65803;PMS5003;65658;63.740;34.316;2023-05-07T22:18:08;4;4;
65803;PMS5003;65658;63.740;34.316;2023-05-07T22:22:06;5;6;
65803;PMS5003;65658;63.740;34.316;2023-05-07T22:29:55;5;5;
65803;PMS5003;65658;63.740;34.316;2023-05-07T22:33:41;3;3;
65803;PMS5003;65658;63.740;34.316;2023-05-07T22:37:36;4;4;
65803;PMS5003;65658;63.740;34.316;2023-05-07T22:41:34;4;4;
65803;PMS5003;65658;63.740;34.316;2023-05-07T22:45:20;4;4;
65803;PMS5003;65658;63.740;34.316;2023-05-07T22:49:18;6;7;
65803;PMS5003;65658;63.740;34.316;2023-05-07T22:53:05;5;5;
65803;PMS5003;65658;63.740;34.316;2023-05-07T23:00:42;5;6;
65803;PMS5003;65658;63.740;34.316;2023-05-07T23:08:19;6;6;
65803;PMS5003;65658;63.740;34.316;2023-05-07T23:15:57;5;5;
65803;PMS5003;65658;63.740;34.316;2023-05-07T23:19:42;6;7;
65803;PMS5003;65658;63.740;34.316;2023-05-07T23:23:29;6;7;
65803;PMS5003;65658;63.740;34.316;2023-05-07T23:27:15;9;10;
65803;PMS5003;65658;63.740;34.316;2023-05-07T23:35:14;6;6;
65803;PMS5003;65658;63.740;34.316;2023-05-07T23:42:52;6;6;
65803;PMS5003;65658;63.740;34.316;2023-05-07T23:46:49;5;5;
65803;PMS5003;65658;63.740;34.316;2023-05-07T23:50:35;10;12;
65803;PMS5003;65658;63.740;34.316;2023-05-07T23:54:22;12;12;
65803;PMS5003;65658;63.740;34.316;2023-05-07T23:58:09;9;9;
